Time;durP1;ratioP1;P1;durP2;ratioP2;P2;SDS_P1;SDS_P2;PMS_P1;PMS_P2;Temp;Humidity;BMP_temperature;BMP_pressure;BME280_temperature;BME280_humidity;BME280_pressure;Samples;Min_cycle;Max_cycle;Signal;HPM_P1;HPM_P2
2023/02/04 00:00:14;;;;;;;11.73;8.95;;;;;9.20;99860.00;;;;4936825;29;20060;-63
2023/02/04 00:02:40;;;;;;;11.77;8.43;;;;;9.20;99855.00;;;;4936520;29;20516;-63
2023/02/04 00:05:09;;;;;;;12.82;8.15;;;;;9.20;99866.00;;;;4936392;29;20046;-62
2023/02/04 00:07:36;;;;;;;12.93;8.75;;;;;9.20;99866.00;;;;4919706;29;20047;-61
2023/02/04 00:10:04;;;;;;;9.77;8.63;;;;;9.20;99865.00;;;;4936643;29;20047;-63
2023/02/04 00:12:31;;;;;;;11.52;8.57;;;;;9.20;99869.00;;;;4919714;29;20551;-64
2023/02/04 00:14:57;;;;;;;12.32;8.23;;;;;9.20;99870.00;;;;4936072;29;20043;-64
2023/02/04 00:17:24;;;;;;;11.57;8.75;;;;;9.20;99873.00;;;;4936429;29;20048;-64
2023/02/04 00:19:50;;;;;;;10.25;7.63;;;;;9.20;99873.00;;;;4936328;29;20509;-64
2023/02/04 00:22:17;;;;;;;9.85;8.18;;;;;9.20;99875.00;;;;4936155;29;20047;-62
2023/02/04 00:24:48;;;;;;;9.65;7.95;;;;;9.20;99878.00;;;;4935689;29;20050;-63
2023/02/04 00:27:15;;;;;;;11.15;8.27;;;;;9.20;99883.00;;;;4936104;29;20050;-62
2023/02/04 00:29:41;;;;;;;14.38;8.52;;;;;9.20;99880.00;;;;4919292;29;20048;-62
2023/02/04 00:32:08;;;;;;;10.70;8.38;;;;;9.20;99880.00;;;;4919021;29;20120;-63
2023/02/04 00:34:35;;;;;;;16.45;9.10;;;;;9.20;99884.00;;;;4918648;29;20055;-62
2023/02/04 00:37:02;;;;;;;13.30;8.48;;;;;9.30;99888.00;;;;4936307;29;20040;-63
2023/02/04 00:39:28;;;;;;;9.95;8.90;;;;;9.30;99897.00;;;;4936241;29;20044;-62
2023/02/04 00:41:55;;;;;;;10.18;7.90;;;;;9.30;99892.00;;;;4918902;29;20037;-62
2023/02/04 00:44:21;;;;;;;10.13;8.45;;;;;9.40;99896.00;;;;4935336;29;20142;-62
2023/02/04 00:46:48;;;;;;;10.23;8.25;;;;;9.40;99906.00;;;;4936086;29;20039;-62
2023/02/04 00:49:15;;;;;;;11.38;8.07;;;;;9.50;99896.00;;;;4918918;29;20373;-62
2023/02/04 00:51:45;;;;;;;17.85;9.82;;;;;9.40;99890.00;;;;4935169;29;20036;-63
2023/02/04 00:54:13;;;;;;;13.57;8.43;;;;;9.40;99891.00;;;;4918399;29;20059;-62
2023/02/04 00:56:40;;;;;;;13.45;9.13;;;;;9.40;99897.00;;;;4919301;29;20051;-63
2023/02/04 00:59:07;;;;;;;11.93;8.07;;;;;9.40;99890.00;;;;4935880;29;20421;-61
2023/02/04 01:01:34;;;;;;;11.90;8.05;;;;;9.40;99903.00;;;;4935703;29;20067;-64
2023/02/04 01:04:00;;;;;;;10.07;8.23;;;;;9.40;99912.00;;;;4918672;29;20493;-63
2023/02/04 01:06:27;;;;;;;9.98;7.90;;;;;9.30;99916.00;;;;4918419;29;20058;-63
2023/02/04 01:08:54;;;;;;;10.63;8.25;;;;;9.30;99921.00;;;;4935687;29;20048;-63
2023/02/04 01:11:22;;;;;;;11.40;8.63;;;;;9.30;99923.00;;;;4918538;29;20576;-62
2023/02/04 01:13:48;;;;;;;11.82;8.23;;;;;9.30;99928.00;;;;4918552;29;20496;-61
2023/02/04 01:16:15;;;;;;;11.80;8.23;;;;;9.30;99929.00;;;;4935411;29;20071;-62
2023/02/04 01:18:42;;;;;;;9.68;7.75;;;;;9.40;99926.00;;;;4935798;29;20049;-62
2023/02/04 01:21:09;;;;;;;8.52;6.43;;;;;9.40;99925.00;;;;4935431;29;20540;-61
2023/02/04 01:23:36;;;;;;;9.05;7.40;;;;;9.40;99923.00;;;;4935168;29;20048;-61
2023/02/04 01:26:03;;;;;;;6.65;5.40;;;;;9.40;99909.00;;;;4934958;29;20524;-61
2023/02/04 01:28:30;;;;;;;7.10;5.75;;;;;9.40;99929.00;;;;4918540;29;20079;-62
2023/02/04 01:30:57;;;;;;;7.05;4.97;;;;;9.40;99937.00;;;;4935979;29;20047;-61
2023/02/04 01:33:24;;;;;;;3.10;2.80;;;;;9.40;99928.00;;;;4935275;29;20051;-61
2023/02/04 01:35:50;;;;;;;3.85;3.20;;;;;9.30;99928.00;;;;4917805;29;20665;-61
2023/02/04 01:38:17;;;;;;;4.75;2.25;;;;;9.20;99939.00;;;;4935305;29;20505;-61
2023/02/04 01:40:43;;;;;;;2.22;1.90;;;;;9.20;99929.00;;;;4935089;29;20051;-62
2023/02/04 01:43:11;;;;;;;2.33;1.80;;;;;9.10;99931.00;;;;4934860;29;20043;-62
2023/02/04 01:45:38;;;;;;;2.92;1.92;;;;;9.10;99933.00;;;;4934794;29;20091;-63
2023/02/04 01:48:06;;;;;;;2.00;1.77;;;;;9.10;99936.00;;;;4918740;29;20612;-65
2023/02/04 01:50:33;;;;;;;3.20;1.92;;;;;9.10;99929.00;;;;4935469;29;20099;-63
2023/02/04 01:53:00;;;;;;;2.13;1.60;;;;;9.10;99929.00;;;;4935318;29;20043;-62
2023/02/04 01:55:30;;;;;;;3.38;1.50;;;;;9.10;99928.00;;;;4934357;29;20421;-62
2023/02/04 01:57:58;;;;;;;3.00;1.20;;;;;9.10;99934.00;;;;4917797;29;20075;-63
2023/02/04 02:00:29;;;;;;;3.05;1.08;;;;;9.10;99938.00;;;;4902647;29;20047;-64
2023/02/04 02:02:57;;;;;;;3.17;1.17;;;;;9.00;99929.00;;;;4934799;29;20089;-63
2023/02/04 02:05:31;;;;;;;4.85;1.10;;;;;9.00;99933.00;;;;4918250;29;20079;-63
2023/02/04 02:08:00;;;;;;;2.95;0.93;;;;;9.00;99936.00;;;;4917897;29;20074;-63
2023/02/04 02:10:26;;;;;;;2.50;1.00;;;;;9.00;99941.00;;;;4921967;29;20131;-62
2023/02/04 02:12:54;;;;;;;3.08;1.10;;;;;8.80;99945.00;;;;4943993;29;20090;-63
2023/02/04 02:15:21;;;;;;;5.10;1.25;;;;;8.90;99951.00;;;;4937363;29;20071;-61
2023/02/04 02:17:49;;;;;;;4.65;1.67;;;;;8.80;99960.00;;;;4934863;29;20049;-61
2023/02/04 02:20:19;;;;;;;4.75;1.20;;;;;8.80;99949.00;;;;4934694;29;20055;-60
2023/02/04 02:23:01;;;;;;;3.88;1.17;;;;;8.70;99948.00;;;;4917516;29;20067;-62
2023/02/04 02:25:29;;;;;;;3.08;1.33;;;;;8.70;99946.00;;;;4934451;29;20099;-62
2023/02/04 02:27:57;;;;;;;3.78;1.10;;;;;8.70;99948.00;;;;4935291;29;20405;-63
2023/02/04 02:30:26;;;;;;;5.10;1.40;;;;;8.70;99944.00;;;;4917384;29;20079;-63
2023/02/04 02:32:53;;;;;;;7.18;1.67;;;;;8.70;99945.00;;;;4934292;29;20042;-64
2023/02/04 02:35:20;;;;;;;4.00;1.30;;;;;8.80;99953.00;;;;4933579;29;20501;-64
2023/02/04 02:37:48;;;;;;;4.32;1.33;;;;;8.80;99944.00;;;;4917194;29;20056;-62
2023/02/04 02:40:14;;;;;;;5.82;1.30;;;;;8.80;99954.00;;;;4934257;29;20047;-63
2023/02/04 02:42:43;;;;;;;7.68;1.60;;;;;8.80;99956.00;;;;4916992;29;20047;-62
2023/02/04 02:45:19;;;;;;;4.50;1.60;;;;;8.80;99953.00;;;;4933625;29;20126;-64
2023/02/04 02:47:46;;;;;;;2.55;1.65;;;;;8.80;99958.00;;;;4934172;29;20055;-64
2023/02/04 02:50:16;;;;;;;4.13;1.35;;;;;8.80;99965.00;;;;4917064;29;20055;-64
2023/02/04 02:52:42;;;;;;;5.50;1.58;;;;;8.90;99962.00;;;;4917198;29;20325;-64
2023/02/04 02:55:18;;;;;;;3.83;1.50;;;;;8.90;99959.00;;;;4916376;29;20103;-63
2023/02/04 02:57:46;;;;;;;3.28;1.60;;;;;8.90;99975.00;;;;4917011;29;20140;-63
2023/02/04 03:00:22;;;;;;;4.47;1.67;;;;;8.80;99976.00;;;;4917016;29;20052;-63
2023/02/04 03:03:21;;;;;;;6.43;1.80;;;;;8.90;99974.00;;;;4916948;29;20417;-61
2023/02/04 03:05:51;;;;;;;2.75;1.00;;;;;8.90;99976.00;;;;4933659;29;20090;-62
2023/02/04 03:08:19;;;;;;;4.25;1.15;;;;;8.90;99975.00;;;;4917007;29;20142;-62
2023/02/04 03:10:46;;;;;;;4.65;1.30;;;;;8.90;99977.00;;;;4917768;29;20071;-61
2023/02/04 03:13:14;;;;;;;6.10;1.30;;;;;8.80;99988.00;;;;4934438;29;20043;-62
2023/02/04 03:15:43;;;;;;;7.03;1.58;;;;;8.60;99978.00;;;;4935175;29;20047;-61
2023/02/04 03:18:11;;;;;;;9.73;1.67;;;;;8.50;99989.00;;;;4921122;29;20528;-62
2023/02/04 03:20:38;;;;;;;5.63;1.33;;;;;8.40;99989.00;;;;4937741;29;20051;-62
2023/02/04 03:23:05;;;;;;;4.82;1.48;;;;;8.40;99999.00;;;;4920451;29;20070;-62
2023/02/04 03:25:32;;;;;;;5.65;1.50;;;;;8.40;99999.00;;;;4920321;29;20044;-62
2023/02/04 03:27:59;;;;;;;6.30;1.30;;;;;8.30;100006.00;;;;4937814;29;20105;-62
2023/02/04 03:30:26;;;;;;;4.10;1.70;;;;;8.30;100018.00;;;;4921054;29;20051;-61
2023/02/04 03:32:53;;;;;;;6.03;2.20;;;;;8.40;100024.00;;;;4938184;29;20050;-62
2023/02/04 03:35:20;;;;;;;4.47;1.60;;;;;8.40;100017.00;;;;4937132;29;20509;-63
2023/02/04 03:37:47;;;;;;;4.53;1.33;;;;;8.40;100021.00;;;;4937750;29;20052;-63
2023/02/04 03:40:13;;;;;;;5.78;1.75;;;;;8.40;100030.00;;;;4937778;29;20129;-63
2023/02/04 03:42:40;;;;;;;4.97;1.98;;;;;8.20;100032.00;;;;4937394;29;20050;-62
2023/02/04 03:45:07;;;;;;;7.28;2.22;;;;;8.20;100031.00;;;;4936848;29;20055;-62
2023/02/04 03:47:33;;;;;;;5.32;1.65;;;;;8.20;100035.00;;;;4937243;29;20572;-62
2023/02/04 03:50:00;;;;;;;7.97;1.95;;;;;8.10;100038.00;;;;4937281;29;20409;-63
2023/02/04 03:52:26;;;;;;;5.00;1.48;;;;;8.10;100037.00;;;;4936971;29;20047;-63
2023/02/04 03:54:53;;;;;;;5.22;1.63;;;;;8.10;100031.00;;;;4936638;29;20070;-62
2023/02/04 03:57:20;;;;;;;6.93;2.22;;;;;8.20;100039.00;;;;4937135;29;20044;-63
2023/02/04 03:59:47;;;;;;;7.25;2.15;;;;;8.10;100032.00;;;;4937015;29;20107;-63
2023/02/04 04:02:13;;;;;;;4.53;1.92;;;;;8.10;100042.00;;;;4936846;29;20086;-63
2023/02/04 04:04:40;;;;;;;7.88;1.92;;;;;8.20;100040.00;;;;4936523;29;20437;-63
2023/02/04 04:07:06;;;;;;;8.35;2.17;;;;;8.20;100037.00;;;;4937216;29;20048;-63
2023/02/04 04:09:33;;;;;;;4.05;1.60;;;;;8.30;100040.00;;;;4937226;29;20044;-62
2023/02/04 04:11:59;;;;;;;4.80;1.48;;;;;8.40;100038.00;;;;4937094;29;20047;-63
2023/02/04 04:14:26;;;;;;;7.90;2.63;;;;;8.40;100034.00;;;;4936617;29;20465;-62
2023/02/04 04:16:52;;;;;;;5.40;1.73;;;;;8.40;100036.00;;;;4937106;29;20051;-62
2023/02/04 04:19:19;;;;;;;7.82;2.15;;;;;8.40;100029.00;;;;4937005;29;20429;-61
2023/02/04 04:21:45;;;;;;;4.85;1.90;;;;;8.40;100042.00;;;;4936839;29;20047;-63
2023/02/04 04:24:12;;;;;;;5.15;2.58;;;;;8.50;100046.00;;;;4936443;29;20106;-63
2023/02/04 04:26:38;;;;;;;6.45;2.60;;;;;8.50;100040.00;;;;4937049;29;20561;-63
2023/02/04 04:29:05;;;;;;;5.55;1.98;;;;;8.60;100050.00;;;;4936982;29;20055;-63
2023/02/04 04:31:31;;;;;;;4.43;1.90;;;;;8.60;100050.00;;;;4936818;29;20505;-61
2023/02/04 04:33:58;;;;;;;4.45;1.75;;;;;8.60;100041.00;;;;4936592;29;20055;-63
2023/02/04 04:36:25;;;;;;;5.53;1.88;;;;;8.50;100049.00;;;;4935824;29;20044;-63
2023/02/04 04:38:51;;;;;;;7.18;1.77;;;;;8.50;100048.00;;;;4936597;29;20569;-63
2023/02/04 04:41:18;;;;;;;7.93;1.90;;;;;8.50;100053.00;;;;4936518;29;20644;-63
2023/02/04 04:43:44;;;;;;;3.75;1.60;;;;;8.50;100055.00;;;;4936350;29;20044;-62
2023/02/04 04:46:11;;;;;;;6.40;2.83;;;;;8.60;100064.00;;;;4935849;29;20056;-62
2023/02/04 04:48:37;;;;;;;5.00;2.20;;;;;8.50;100064.00;;;;4936437;29;20470;-62
2023/02/04 04:51:04;;;;;;;4.80;2.00;;;;;8.50;100062.00;;;;4919413;29;20736;-62
2023/02/04 04:53:31;;;;;;;5.80;2.80;;;;;8.60;100062.00;;;;4936351;29;20107;-62
2023/02/04 04:55:57;;;;;;;7.30;2.20;;;;;8.60;100076.00;;;;4935889;29;20103;-62
2023/02/04 04:58:24;;;;;;;5.75;2.35;;;;;8.60;100070.00;;;;4936295;29;20043;-62
2023/02/04 05:00:50;;;;;;;9.13;2.42;;;;;8.60;100083.00;;;;4936281;29;20043;-62
2023/02/04 05:03:17;;;;;;;7.47;2.10;;;;;8.60;100085.00;;;;4935871;29;20047;-62
2023/02/04 05:05:43;;;;;;;5.72;2.08;;;;;8.60;100079.00;;;;4935500;29;20071;-62
2023/02/04 05:08:12;;;;;;;8.40;2.08;;;;;8.60;100069.00;;;;4936039;29;20103;-62
2023/02/04 05:10:40;;;;;;;3.58;1.85;;;;;8.70;100067.00;;;;4919041;29;20505;-62
2023/02/04 05:13:06;;;;;;;7.40;2.22;;;;;8.60;100068.00;;;;4936050;29;20051;-62
2023/02/04 05:15:33;;;;;;;4.82;1.77;;;;;8.50;100083.00;;;;4935451;29;20047;-62
2023/02/04 05:17:59;;;;;;;4.38;2.40;;;;;8.40;100067.00;;;;4936010;29;20079;-61
2023/02/04 05:20:26;;;;;;;4.22;2.10;;;;;8.50;100070.00;;;;4918867;29;20095;-61
2023/02/04 05:22:54;;;;;;;6.13;2.10;;;;;8.50;100073.00;;;;4918933;29;20047;-62
2023/02/04 05:25:22;;;;;;;4.50;2.03;;;;;8.60;100066.00;;;;4935285;29;20052;-62
2023/02/04 05:27:48;;;;;;;3.38;2.00;;;;;8.50;100060.00;;;;4935786;29;20100;-61
2023/02/04 05:30:15;;;;;;;2.83;2.03;;;;;8.50;100052.00;;;;4918826;29;20098;-60
2023/02/04 05:32:42;;;;;;;4.57;1.65;;;;;8.50;100057.00;;;;4935543;29;20048;-62
2023/02/04 05:35:09;;;;;;;4.28;1.67;;;;;8.40;100068.00;;;;4935970;29;20075;-60
2023/02/04 05:37:35;;;;;;;5.75;1.90;;;;;8.40;100057.00;;;;4935765;29;20074;-62
2023/02/04 05:40:02;;;;;;;8.15;2.17;;;;;8.40;100060.00;;;;4935361;29;20386;-63
2023/02/04 05:42:29;;;;;;;4.85;2.25;;;;;8.40;100077.00;;;;4935201;29;20465;-63
2023/02/04 05:44:55;;;;;;;4.80;1.65;;;;;8.50;100079.00;;;;4918272;29;20126;-62
2023/02/04 05:47:22;;;;;;;6.97;1.98;;;;;8.50;100073.00;;;;4935419;29;20523;-63
2023/02/04 05:49:48;;;;;;;6.13;2.17;;;;;8.50;100075.00;;;;4935367;29;20521;-62
2023/02/04 05:52:15;;;;;;;3.92;1.90;;;;;8.40;100066.00;;;;4935197;29;20497;-62
2023/02/04 05:54:42;;;;;;;4.15;1.70;;;;;8.30;100079.00;;;;4917939;29;20054;-61
2023/02/04 05:57:08;;;;;;;8.75;1.80;;;;;8.30;100077.00;;;;4918077;29;20051;-62
2023/02/04 05:59:35;;;;;;;6.38;1.67;;;;;8.30;100092.00;;;;4935316;29;20409;-62
2023/02/04 06:02:01;;;;;;;2.97;1.42;;;;;8.30;100095.00;;;;4903079;29;20059;-62
2023/02/04 06:04:28;;;;;;;5.30;1.98;;;;;8.30;100097.00;;;;4941931;29;20106;-61
2023/02/04 06:06:54;;;;;;;4.40;1.55;;;;;8.20;100102.00;;;;4942897;29;20052;-62
2023/02/04 06:09:21;;;;;;;4.55;1.60;;;;;8.20;100105.00;;;;4918589;29;20106;-62
2023/02/04 06:11:47;;;;;;;3.92;1.80;;;;;8.10;100110.00;;;;4935202;29;20048;-61
2023/02/04 06:14:14;;;;;;;3.15;2.00;;;;;8.10;100111.00;;;;4917900;29;20094;-61
2023/02/04 06:16:40;;;;;;;3.22;1.55;;;;;8.20;100118.00;;;;4918286;29;20494;-62
2023/02/04 06:19:07;;;;;;;3.17;1.75;;;;;8.20;100132.00;;;;4935878;29;20387;-63
2023/02/04 06:21:33;;;;;;;3.38;1.77;;;;;8.30;100136.00;;;;4936150;29;20055;-63
2023/02/04 06:24:00;;;;;;;6.43;2.33;;;;;8.30;100140.00;;;;4918546;29;20419;-62
2023/02/04 06:26:27;;;;;;;6.10;2.25;;;;;8.30;100142.00;;;;4935495;29;20094;-62
2023/02/04 06:28:53;;;;;;;6.00;2.00;;;;;8.30;100140.00;;;;4935684;29;20501;-63
2023/02/04 06:31:19;;;;;;;6.68;2.47;;;;;8.30;100145.00;;;;4935801;29;20055;-61
2023/02/04 06:33:46;;;;;;;4.47;2.00;;;;;8.30;100148.00;;;;4937234;29;20139;-61
2023/02/04 06:36:13;;;;;;;4.05;1.95;;;;;8.30;100144.00;;;;4937185;29;20047;-60
2023/02/04 06:38:40;;;;;;;4.68;1.75;;;;;8.30;100136.00;;;;4937037;29;20091;-64
2023/02/04 06:41:06;;;;;;;3.88;1.77;;;;;8.40;100148.00;;;;4937634;29;20501;-62
2023/02/04 06:43:33;;;;;;;3.22;1.48;;;;;8.40;100150.00;;;;4937608;29;20040;-62
2023/02/04 06:45:59;;;;;;;5.55;1.90;;;;;8.50;100147.00;;;;4937247;29;20304;-62
2023/02/04 06:48:26;;;;;;;4.57;1.95;;;;;8.50;100145.00;;;;4936224;29;20052;-63
2023/02/04 06:50:52;;;;;;;7.07;1.80;;;;;8.40;100140.00;;;;4937632;29;20040;-62
2023/02/04 06:53:19;;;;;;;5.85;2.33;;;;;8.40;100155.00;;;;4939955;29;20048;-62
2023/02/04 06:55:46;;;;;;;3.85;1.90;;;;;8.40;100157.00;;;;4939428;29;20051;-63
2023/02/04 06:58:12;;;;;;;7.05;1.77;;;;;8.40;100158.00;;;;4922874;29;20428;-62
2023/02/04 07:00:39;;;;;;;2.72;1.98;;;;;8.30;100162.00;;;;4939956;29;20051;-61
2023/02/04 07:03:06;;;;;;;5.80;2.08;;;;;8.40;100161.00;;;;4939532;29;20101;-61
2023/02/04 07:05:33;;;;;;;5.28;1.55;;;;;8.40;100170.00;;;;4938675;29;20044;-62
2023/02/04 07:08:00;;;;;;;6.85;1.92;;;;;8.40;100175.00;;;;4921853;29;20507;-63
2023/02/04 07:10:27;;;;;;;4.90;1.90;;;;;8.40;100189.00;;;;4921825;29;20106;-62
2023/02/04 07:12:53;;;;;;;6.13;2.40;;;;;8.40;100189.00;;;;4938677;29;20123;-62
2023/02/04 07:15:20;;;;;;;7.03;2.45;;;;;8.50;100193.00;;;;4938320;29;20044;-61
2023/02/04 07:17:46;;;;;;;3.70;1.92;;;;;8.50;100196.00;;;;4939645;29;20048;-62
2023/02/04 07:20:13;;;;;;;5.05;2.10;;;;;8.50;100193.00;;;;4938845;29;20098;-63
2023/02/04 07:22:41;;;;;;;6.15;1.83;;;;;8.40;100190.00;;;;4938964;29;20523;-62
2023/02/04 07:25:08;;;;;;;5.72;2.42;;;;;8.40;100193.00;;;;4921050;29;20052;-62
2023/02/04 07:27:35;;;;;;;4.93;2.42;;;;;8.40;100198.00;;;;4921977;29;20051;-62
2023/02/04 07:30:02;;;;;;;5.60;1.90;;;;;8.40;100190.00;;;;4923203;29;20044;-62
2023/02/04 07:32:31;;;;;;;9.50;2.55;;;;;8.50;100192.00;;;;4924283;29;20103;-60
2023/02/04 07:34:58;;;;;;;5.25;2.38;;;;;8.50;100194.00;;;;4941223;29;20457;-62
2023/02/04 07:37:25;;;;;;;5.63;2.20;;;;;8.60;100194.00;;;;4925163;29;20044;-61
2023/02/04 07:39:52;;;;;;;5.15;2.35;;;;;8.60;100210.00;;;;4939775;29;20051;-61
2023/02/04 07:42:18;;;;;;;10.77;3.20;;;;;8.60;100207.00;;;;4938431;29;20055;-62
2023/02/04 07:44:52;;;;;;;7.70;2.60;;;;;8.60;100214.00;;;;4922529;29;20054;-62
2023/02/04 07:47:18;;;;;;;11.68;3.00;;;;;8.70;100223.00;;;;4924948;29;20060;-62
2023/02/04 07:49:45;;;;;;;6.97;2.75;;;;;8.70;100227.00;;;;4923136;29;20048;-62
2023/02/04 07:52:11;;;;;;;8.32;3.78;;;;;8.80;100235.00;;;;4939478;29;20048;-61
2023/02/04 07:54:38;;;;;;;5.78;3.03;;;;;8.80;100241.00;;;;4921805;29;20051;-63
2023/02/04 07:57:04;;;;;;;4.63;3.25;;;;;8.80;100248.00;;;;4921738;29;20501;-61
2023/02/04 07:59:31;;;;;;;7.20;3.10;;;;;8.80;100244.00;;;;4939233;29;20490;-61
2023/02/04 08:01:57;;;;;;;6.68;3.05;;;;;8.80;100235.00;;;;4920938;29;20055;-62
2023/02/04 08:04:24;;;;;;;4.18;2.60;;;;;8.80;100238.00;;;;4938887;29;20129;-63
2023/02/04 08:06:50;;;;;;;5.88;2.67;;;;;8.80;100236.00;;;;4940666;29;20131;-63
2023/02/04 08:09:17;;;;;;;5.90;2.30;;;;;8.80;100237.00;;;;4938686;29;20052;-64
2023/02/04 08:11:43;;;;;;;4.30;2.70;;;;;8.90;100249.00;;;;4938556;29;20098;-63
2023/02/04 08:14:10;;;;;;;7.25;2.53;;;;;9.00;100249.00;;;;4938161;29;20043;-64
2023/02/04 08:16:36;;;;;;;8.02;3.22;;;;;9.00;100259.00;;;;4938859;29;20123;-62
2023/02/04 08:19:03;;;;;;;9.15;3.67;;;;;9.10;100261.00;;;;4937572;29;20047;-63
2023/02/04 08:21:29;;;;;;;8.55;4.10;;;;;9.10;100266.00;;;;4937446;29;20460;-63
2023/02/04 08:23:56;;;;;;;5.50;3.35;;;;;9.10;100269.00;;;;4937683;29;20086;-63
2023/02/04 08:26:22;;;;;;;10.30;4.32;;;;;9.10;100273.00;;;;4936472;29;20052;-63
2023/02/04 08:28:49;;;;;;;7.93;3.80;;;;;9.20;100266.00;;;;4937300;29;20109;-63
2023/02/04 08:31:15;;;;;;;6.85;3.75;;;;;9.30;100271.00;;;;4937299;29;20044;-64
2023/02/04 08:33:42;;;;;;;5.97;2.92;;;;;9.40;100274.00;;;;4937035;29;20043;-64
2023/02/04 08:36:09;;;;;;;7.00;3.55;;;;;9.40;100268.00;;;;4936799;29;20056;-63
2023/02/04 08:38:35;;;;;;;8.82;3.33;;;;;9.50;100267.00;;;;4937010;29;20044;-62
2023/02/04 08:41:02;;;;;;;7.38;2.35;;;;;9.50;100280.00;;;;4936771;29;20044;-63
2023/02/04 08:43:29;;;;;;;7.72;3.08;;;;;9.70;100278.00;;;;4936926;29;20039;-63
2023/02/04 08:45:55;;;;;;;5.35;2.83;;;;;9.80;100269.00;;;;4919298;29;20051;-62
2023/02/04 08:48:22;;;;;;;7.63;2.75;;;;;10.00;100290.00;;;;4936845;29;20103;-63
2023/02/04 08:50:48;;;;;;;7.25;3.53;;;;;10.00;100288.00;;;;4937211;29;20039;-64
2023/02/04 08:53:15;;;;;;;6.38;3.30;;;;;10.00;100284.00;;;;4919829;29;20043;-64
2023/02/04 08:55:41;;;;;;;7.38;3.40;;;;;10.00;100297.00;;;;4936404;29;20067;-63
2023/02/04 08:58:08;;;;;;;12.15;3.47;;;;;10.00;100286.00;;;;4936569;29;20536;-63
2023/02/04 09:00:34;;;;;;;7.38;3.13;;;;;10.00;100288.00;;;;4936338;29;20469;-63
2023/02/04 09:03:01;;;;;;;7.25;3.33;;;;;10.10;100297.00;;;;4936434;29;20596;-63
2023/02/04 09:05:28;;;;;;;6.55;3.03;;;;;10.00;100298.00;;;;4935934;29;20048;-63
2023/02/04 09:07:54;;;;;;;8.63;2.92;;;;;10.00;100291.00;;;;4936889;29;20040;-66
2023/02/04 09:10:21;;;;;;;6.43;3.22;;;;;10.00;100294.00;;;;4919588;29;20047;-63
2023/02/04 09:12:47;;;;;;;10.23;3.25;;;;;10.00;100295.00;;;;4936010;29;20051;-64
2023/02/04 09:15:14;;;;;;;6.75;3.60;;;;;10.00;100297.00;;;;4918574;29;20466;-63
2023/02/04 09:17:42;;;;;;;9.02;3.67;;;;;10.10;100300.00;;;;4936068;29;20449;-64
2023/02/04 09:20:09;;;;;;;8.07;3.42;;;;;10.10;100301.00;;;;4936487;29;20378;-64
2023/02/04 09:22:36;;;;;;;7.07;3.25;;;;;10.00;100295.00;;;;4935962;29;20047;-64
2023/02/04 09:25:03;;;;;;;8.70;4.03;;;;;10.10;100306.00;;;;4935191;29;20040;-63
2023/02/04 09:27:30;;;;;;;9.43;3.95;;;;;10.10;100297.00;;;;4935573;29;20052;-64
2023/02/04 09:29:56;;;;;;;7.45;3.25;;;;;10.10;100302.00;;;;4918762;29;20051;-63
2023/02/04 09:32:23;;;;;;;9.02;3.40;;;;;10.10;100306.00;;;;4935582;29;20047;-62
2023/02/04 09:34:49;;;;;;;6.07;3.42;;;;;10.10;100303.00;;;;4935307;29;20054;-63
2023/02/04 09:37:16;;;;;;;6.35;3.63;;;;;10.00;100319.00;;;;4935341;29;20052;-63
2023/02/04 09:39:43;;;;;;;11.38;3.78;;;;;10.00;100321.00;;;;4918618;29;20046;-63
2023/02/04 09:42:13;;;;;;;10.00;4.07;;;;;10.00;100318.00;;;;4935631;29;20501;-64
2023/02/04 09:44:40;;;;;;;7.07;4.72;;;;;9.90;100333.00;;;;4934796;29;20396;-64
2023/02/04 09:47:10;;;;;;;14.00;5.32;;;;;9.90;100333.00;;;;4935484;29;20509;-64
2023/02/04 09:49:37;;;;;;;11.90;5.43;;;;;9.80;100338.00;;;;4935421;29;20047;-63
2023/02/04 09:52:13;;;;;;;10.70;4.53;;;;;9.80;100335.00;;;;4935385;29;20126;-64
2023/02/04 09:54:39;;;;;;;14.65;5.80;;;;;9.80;100341.00;;;;4934901;29;20605;-63
2023/02/04 09:57:15;;;;;;;16.10;8.52;;;;;9.60;100339.00;;;;4935756;29;20098;-64
2023/02/04 09:59:43;;;;;;;13.77;5.28;;;;;9.60;100332.00;;;;4940261;29;20497;-63
2023/02/04 10:02:23;;;;;;;8.65;4.70;;;;;9.70;100325.00;;;;4940053;29;20085;-63
2023/02/04 10:04:52;;;;;;;11.07;4.65;;;;;9.80;100336.00;;;;4935476;29;20039;-65
2023/02/04 10:07:23;;;;;;;9.95;4.38;;;;;9.80;100352.00;;;;4935362;29;20409;-64
2023/02/04 10:09:51;;;;;;;13.88;4.47;;;;;9.90;100348.00;;;;4935341;29;20050;-63
2023/02/04 10:12:18;;;;;;;16.20;4.65;;;;;10.00;100342.00;;;;4918410;29;20462;-63
2023/02/04 10:14:45;;;;;;;8.43;3.90;;;;;10.10;100340.00;;;;4934579;29;20044;-64
2023/02/04 10:17:19;;;;;;;16.05;4.93;;;;;10.20;100348.00;;;;4935192;29;20508;-63
2023/02/04 10:19:46;;;;;;;;;;;;;10.40;100348.00;;;;4918433;29;20410;-62
2023/02/04 10:22:17;;;;;;;8.90;4.45;;;;;10.50;100341.00;;;;4935142;29;19954;-63
2023/02/04 10:24:44;;;;;;;15.55;4.95;;;;;10.70;100356.00;;;;4934452;29;20046;-66
2023/02/04 10:27:14;;;;;;;9.82;5.00;;;;;10.80;100361.00;;;;4934880;29;20428;-64
2023/02/04 10:29:42;;;;;;;10.63;4.22;;;;;10.70;100352.00;;;;4918234;29;20043;-65
2023/02/04 10:32:25;;;;;;;11.63;4.28;;;;;10.70;100350.00;;;;4917620;29;20055;-66
2023/02/04 10:34:57;;;;;;;11.40;4.43;;;;;10.90;100368.00;;;;4934450;29;20039;-66
2023/02/04 10:37:24;;;;;;;9.23;4.47;;;;;11.00;100362.00;;;;4918332;29;20059;-64
2023/02/04 10:39:51;;;;;;;9.13;4.45;;;;;11.00;100362.00;;;;4917722;29;20055;-63
2023/02/04 10:42:21;;;;;;;13.70;4.65;;;;;11.00;100357.00;;;;4917813;29;20048;-63
2023/02/04 10:44:48;;;;;;;9.73;4.03;;;;;11.00;100363.00;;;;4933970;29;20405;-63
2023/02/04 10:47:20;;;;;;;12.15;4.55;;;;;11.00;100361.00;;;;4934880;29;20052;-65
2023/02/04 10:49:55;;;;;;;12.95;4.75;;;;;11.00;100359.00;;;;4934759;29;20048;-63
2023/02/04 10:52:31;;;;;;;13.43;4.65;;;;;10.90;100360.00;;;;4934829;29;20508;-64
2023/02/04 10:54:57;;;;;;;11.35;4.30;;;;;10.90;100350.00;;;;4934699;29;20042;-64
2023/02/04 10:57:29;;;;;;;16.05;4.53;;;;;10.90;100356.00;;;;4934641;29;20083;-64
2023/02/04 10:59:58;;;;;;;15.15;5.05;;;;;10.80;100352.00;;;;4934898;29;20062;-63
2023/02/04 11:02:35;;;;;;;11.52;5.13;;;;;10.70;100355.00;;;;4934562;29;20047;-64
2023/02/04 11:05:05;;;;;;;14.75;4.22;;;;;10.70;100353.00;;;;4933909;29;20055;-63
2023/02/04 11:07:32;;;;;;;12.75;4.13;;;;;10.60;100359.00;;;;4934812;29;20066;-63
2023/02/04 11:09:58;;;;;;;12.38;4.15;;;;;10.40;100352.00;;;;4934640;29;20107;-63
2023/02/04 11:12:46;;;;;;;15.00;3.90;;;;;10.50;100335.00;;;;4934737;29;20047;-63
2023/02/04 11:15:38;;;;;;;13.02;4.10;;;;;10.60;100348.00;;;;4934293;29;20046;-64
2023/02/04 11:18:11;;;;;;;14.50;3.95;;;;;10.60;100345.00;;;;4934606;29;20051;-63
2023/02/04 11:20:39;;;;;;;12.48;4.60;;;;;10.50;100338.00;;;;4934735;29;20048;-63
2023/02/04 11:23:24;;;;;;;10.75;4.00;;;;;10.50;100341.00;;;;4934435;29;20048;-64
2023/02/04 11:26:31;;;;;;;13.48;5.15;;;;;10.60;100343.00;;;;4934019;29;20062;-63
2023/02/04 11:28:57;;;;;;;13.70;4.43;;;;;10.60;100343.00;;;;4919597;29;20067;-63
2023/02/04 11:31:26;;;;;;;12.55;4.28;;;;;10.60;100344.00;;;;4934912;29;20500;-64
2023/02/04 11:34:21;;;;;;;10.77;3.90;;;;;10.70;100351.00;;;;4934549;29;20051;-64
2023/02/04 11:37:00;;;;;;;17.70;4.57;;;;;10.80;100350.00;;;;4927219;29;20059;-62
2023/02/04 11:39:41;;;;;;;12.80;4.10;;;;;11.00;100351.00;;;;4938323;29;20055;-66
2023/02/04 11:42:20;;;;;;;13.57;4.00;;;;;11.10;100356.00;;;;4938088;29;20050;-64
2023/02/04 11:44:49;;;;;;;13.70;3.80;;;;;11.30;100360.00;;;;4937507;29;20048;-63
2023/02/04 11:47:15;;;;;;;10.55;3.60;;;;;11.30;100359.00;;;;4938092;29;20049;-63
2023/02/04 11:49:45;;;;;;;11.80;3.60;;;;;11.40;100355.00;;;;4937682;29;20556;-63
2023/02/04 11:52:13;;;;;;;9.55;3.90;;;;;11.40;100354.00;;;;4937723;29;20040;-63
2023/02/04 11:54:39;;;;;;;15.10;4.20;;;;;11.30;100357.00;;;;4937035;29;20094;-62
2023/02/04 11:57:10;;;;;;;14.20;4.20;;;;;11.10;100358.00;;;;4920756;29;20043;-62
2023/02/04 11:59:37;;;;;;;7.45;3.33;;;;;11.10;100353.00;;;;4937645;29;20094;-61
2023/02/04 12:02:15;;;;;;;10.93;2.90;;;;;11.20;100347.00;;;;4938180;29;20501;-64
2023/02/04 12:04:57;;;;;;;11.13;4.07;;;;;11.40;100346.00;;;;4937352;29;20493;-62
2023/02/04 12:07:27;;;;;;;12.90;3.53;;;;;11.40;100337.00;;;;4938044;29;20050;-63
2023/02/04 12:09:54;;;;;;;9.73;3.30;;;;;11.40;100341.00;;;;4938105;29;20052;-64
2023/02/04 12:12:29;;;;;;;11.98;3.03;;;;;11.30;100340.00;;;;4937857;29;20051;-65
2023/02/04 12:15:14;;;;;;;11.90;3.75;;;;;11.40;100343.00;;;;4936788;29;20054;-65
2023/02/04 12:17:44;;;;;;;11.75;3.60;;;;;11.40;100337.00;;;;4937909;29;20058;-64
2023/02/04 12:20:12;;;;;;;10.93;3.10;;;;;11.60;100336.00;;;;4937115;29;20464;-64